Time;durP1;ratioP1;P1;durP2;ratioP2;P2;SDS_P1;SDS_P2;PMS_P1;PMS_P2;Temp;Humidity;BMP_temperature;BMP_pressure;BME280_temperature;BME280_humidity;BME280_pressure;Samples;Min_cycle;Max_cycle;Signal;HPM_P1;HPM_P2
2022/04/02 00:01:30;;;;;;;15.38;9.00;;;7.60;72.60;;;;;;5070834;28;20089;-78
2022/04/02 00:03:57;;;;;;;15.75;9.13;;;7.50;72.80;;;;;;5071268;28;20149;-78
2022/04/02 00:06:23;;;;;;;14.50;9.38;;;7.50;72.80;;;;;;5072165;28;20093;-76
2022/04/02 00:08:50;;;;;;;16.30;9.57;;;7.40;72.30;;;;;;5070421;28;20433;-78
2022/04/02 00:11:16;;;;;;;16.48;9.13;;;7.40;73.00;;;;;;5053877;28;20040;-75
2022/04/02 00:13:42;;;;;;;16.45;9.05;;;7.40;73.00;;;;;;5071125;28;20044;-79
2022/04/02 00:16:08;;;;;;;14.73;8.60;;;7.30;73.20;;;;;;5070539;28;20102;-78
2022/04/02 00:18:34;;;;;;;15.10;8.88;;;7.30;73.20;;;;;;5072341;28;20397;-77
2022/04/02 00:21:00;;;;;;;14.00;8.48;;;7.30;73.90;;;;;;5053803;28;20045;-77
2022/04/02 00:26:15;;;;;;;14.57;9.13;;;7.30;72.90;;;;;;5071044;28;20558;-74
2022/04/02 00:28:43;;;;;;;15.15;8.70;;;7.20;72.40;;;;;;5054313;28;20048;-76
2022/04/02 00:31:12;;;;;;;13.77;8.45;;;7.20;72.50;;;;;;5053756;28;20093;-78
2022/04/02 00:33:39;;;;;;;13.63;8.48;;;7.20;72.50;;;;;;5054438;28;20028;-78
2022/04/02 00:36:06;;;;;;;16.45;9.25;;;7.10;72.50;;;;;;5053705;28;20469;-75
2022/04/02 00:38:34;;;;;;;16.05;9.65;;;7.10;72.40;;;;;;5053315;28;20036;-78
2022/04/02 00:41:00;;;;;;;14.90;8.25;;;7.10;71.90;;;;;;5070503;28;20119;-76
2022/04/02 00:43:28;;;;;;;;;;;7.00;72.50;;;;;;5057556;28;20136;-77
2022/04/02 00:45:56;;;;;;;;;;;7.00;72.20;;;;;;5075922;28;19919;-75
2022/04/02 00:48:23;;;;;;;16.13;8.55;;;7.00;72.10;;;;;;5074513;28;19986;-78
2022/04/02 00:50:56;;;;;;;17.88;10.07;;;7.00;72.40;;;;;;5057196;28;20548;-75
2022/04/02 00:53:25;;;;;;;16.77;9.27;;;6.90;72.50;;;;;;5056830;28;20033;-74
2022/04/02 00:55:51;;;;;;;17.63;9.82;;;6.90;72.50;;;;;;5073840;28;20037;-75
2022/04/02 00:58:18;;;;;;;17.20;10.30;;;7.00;72.70;;;;;;5057562;28;20396;-75
2022/04/02 01:00:45;;;;;;;15.25;8.93;;;7.00;72.70;;;;;;5073608;28;20040;-75
2022/04/02 01:03:12;;;;;;;16.38;9.63;;;7.00;72.70;;;;;;5074193;28;20035;-75
2022/04/02 01:05:39;;;;;;;17.42;9.55;;;6.90;73.50;;;;;;5073592;28;20033;-74
2022/04/02 01:08:06;;;;;;;15.43;9.20;;;6.90;72.40;;;;;;5073232;28;20037;-74
2022/04/02 01:10:35;;;;;;;14.73;9.00;;;7.00;72.20;;;;;;5057198;28;20397;-77
2022/04/02 01:13:02;;;;;;;15.38;9.27;;;7.00;72.10;;;;;;5057485;28;20128;-77
2022/04/02 01:15:29;;;;;;;20.10;10.13;;;7.00;71.90;;;;;;5057103;28;20127;-74
2022/04/02 01:17:55;;;;;;;;;;;7.00;72.10;;;;;;5074597;28;20492;-76
2022/04/02 01:20:24;;;;;;;16.75;9.45;;;7.00;71.70;;;;;;5073521;28;19913;-77
2022/04/02 01:22:51;;;;;;;16.38;9.13;;;7.00;71.70;;;;;;5073206;28;20036;-74
2022/04/02 01:25:17;;;;;;;17.20;9.52;;;7.00;71.20;;;;;;5056665;28;20124;-75
2022/04/02 01:27:44;;;;;;;17.27;10.25;;;7.00;72.00;;;;;;5073558;28;20059;-77
2022/04/02 01:30:13;;;;;;;18.60;10.27;;;7.00;71.90;;;;;;5074521;28;20028;-77
2022/04/02 01:32:39;;;;;;;16.27;9.68;;;7.00;72.00;;;;;;5073906;28;20040;-74
2022/04/02 01:35:08;;;;;;;18.25;9.82;;;7.00;71.70;;;;;;5073393;28;20051;-77
2022/04/02 01:37:55;;;;;;;16.88;10.00;;;7.10;71.60;;;;;;5073736;28;20071;-77
2022/04/02 01:40:21;;;;;;;17.48;9.82;;;7.10;71.30;;;;;;5073079;28;20401;-74
2022/04/02 01:42:47;;;;;;;;;;;7.20;70.70;;;;;;5074200;28;20047;-74
2022/04/02 01:45:15;;;;;;;16.05;9.13;;;7.20;71.00;;;;;;5056354;28;19912;-75
2022/04/02 01:47:42;;;;;;;17.75;10.02;;;7.20;70.90;;;;;;5073570;28;20050;-75
2022/04/02 01:53:10;;;;;;;17.25;9.50;;;7.20;71.00;;;;;;5073660;28;20041;-75
2022/04/02 01:55:36;;;;;;;17.83;10.10;;;7.10;70.70;;;;;;5055505;28;20507;-75
2022/04/02 01:58:03;;;;;;;19.75;10.38;;;7.20;71.40;;;;;;5056491;28;20175;-76
2022/04/02 02:00:29;;;;;;;18.50;10.40;;;7.10;71.40;;;;;;5072715;28;20554;-75
2022/04/02 02:02:55;;;;;;;21.27;11.70;;;7.10;71.60;;;;;;5056530;28;20453;-75
2022/04/02 02:05:21;;;;;;;19.15;10.70;;;7.10;71.50;;;;;;5072644;28;20032;-75
2022/04/02 02:08:07;;;;;;;24.42;13.05;;;7.10;71.50;;;;;;5073341;28;20173;-77
2022/04/02 02:10:33;;;;;;;57.28;24.75;;;7.10;71.30;;;;;;5073649;28;20041;-77
2022/04/02 02:13:00;;;;;;;;;;;7.00;71.60;;;;;;5056936;28;20037;-76
2022/04/02 02:15:27;;;;;;;45.00;20.93;;;7.00;71.30;;;;;;5072445;28;20364;-77
2022/04/02 02:17:53;;;;;;;54.85;24.33;;;7.00;70.80;;;;;;5073045;28;20033;-76
2022/04/02 02:20:21;;;;;;;42.30;19.77;;;6.90;71.70;;;;;;5072352;28;20033;-76
2022/04/02 02:22:50;;;;;;;34.42;17.85;;;6.80;71.60;;;;;;5072856;28;20039;-76
2022/04/02 02:25:17;;;;;;;19.73;10.73;;;6.90;71.70;;;;;;5054854;28;20074;-76
2022/04/02 02:27:45;;;;;;;18.63;11.65;;;6.80;71.60;;;;;;5072350;28;20058;-77
2022/04/02 02:30:14;;;;;;;19.73;11.30;;;6.80;71.60;;;;;;5072138;28;20111;-75
2022/04/02 02:32:40;;;;;;;18.02;11.40;;;6.80;71.60;;;;;;5072788;28;20032;-78
2022/04/02 02:38:14;;;;;;;20.08;9.82;;;6.70;71.40;;;;;;5072870;28;19939;-77
2022/04/02 02:40:41;;;;;;;19.90;9.63;;;6.70;71.60;;;;;;5071690;28;20064;-76
2022/04/02 02:43:08;;;;;;;19.10;9.65;;;6.60;71.40;;;;;;5055800;28;21004;-76
2022/04/02 02:45:35;;;;;;;20.88;11.15;;;6.60;71.30;;;;;;5073406;28;20036;-78
2022/04/02 02:48:03;;;;;;;15.98;9.63;;;6.60;71.40;;;;;;5072228;28;20136;-76
2022/04/02 02:50:29;;;;;;;19.20;10.45;;;6.50;71.40;;;;;;5071571;28;20071;-77
2022/04/02 02:52:55;;;;;;;;;;;6.50;71.40;;;;;;5074423;28;20082;-78
2022/04/02 02:55:22;;;;;;;16.75;9.95;;;6.40;71.20;;;;;;5054109;28;19942;-79
2022/04/02 02:57:48;;;;;;;19.60;9.75;;;6.30;70.60;;;;;;5072290;28;20033;-76
2022/04/02 03:00:17;;;;;;;19.17;10.57;;;6.20;71.30;;;;;;5071705;28;20036;-76
2022/04/02 03:02:43;;;;;;;18.08;9.57;;;6.20;71.40;;;;;;5072135;28;20040;-78
2022/04/02 03:05:12;;;;;;;19.58;10.30;;;6.10;71.20;;;;;;5071086;28;20036;-79
2022/04/02 03:07:57;;;;;;;19.20;9.98;;;6.00;71.10;;;;;;5071602;28;20405;-77
2022/04/02 03:10:26;;;;;;;16.60;9.02;;;6.00;71.40;;;;;;5070349;28;20159;-76
2022/04/02 03:13:12;;;;;;;18.38;10.63;;;6.00;71.20;;;;;;5055477;28;20123;-77
2022/04/02 03:15:38;;;;;;;19.75;11.15;;;6.00;71.00;;;;;;5071260;28;20060;-77
2022/04/02 03:18:08;;;;;;;19.00;10.50;;;6.00;71.00;;;;;;5071718;28;20064;-76
2022/04/02 03:20:36;;;;;;;19.30;10.73;;;6.00;70.80;;;;;;5071419;28;20029;-77
2022/04/02 03:23:04;;;;;;;19.98;10.70;;;6.00;70.90;;;;;;5055083;28;20393;-75
2022/04/02 03:25:31;;;;;;;18.77;10.60;;;5.90;70.90;;;;;;5070447;28;20036;-76
2022/04/02 03:27:58;;;;;;;18.13;9.60;;;5.80;70.80;;;;;;5072892;28;20123;-77
2022/04/02 03:30:25;;;;;;;16.08;9.25;;;5.80;70.70;;;;;;5071202;28;20029;-77
2022/04/02 03:32:52;;;;;;;20.88;11.07;;;5.80;70.50;;;;;;5055117;28;20049;-78
2022/04/02 03:35:20;;;;;;;20.85;11.65;;;5.80;70.50;;;;;;5071157;28;20082;-75
2022/04/02 03:37:49;;;;;;;19.50;10.10;;;5.80;70.60;;;;;;5071550;28;20128;-76
2022/04/02 03:40:20;;;;;;;24.33;13.50;;;5.70;70.60;;;;;;5070178;28;20033;-77
2022/04/02 03:42:46;;;;;;;20.05;11.00;;;5.70;70.80;;;;;;5071866;28;20390;-75
2022/04/02 03:45:16;;;;;;;18.10;9.80;;;5.70;70.90;;;;;;5071205;28;20020;-77
2022/04/02 03:47:43;;;;;;;20.83;10.75;;;5.70;70.60;;;;;;5071368;28;20397;-78
2022/04/02 03:50:10;;;;;;;17.77;10.18;;;5.70;70.10;;;;;;5070967;28;20036;-78
2022/04/02 03:52:37;;;;;;;20.27;11.48;;;5.60;70.10;;;;;;5054720;28;20128;-77
2022/04/02 03:55:05;;;;;;;;;;;5.60;70.80;;;;;;5072141;28;20420;-75
2022/04/02 03:57:32;;;;;;;22.42;10.57;;;5.50;70.70;;;;;;5054642;28;20392;-75
2022/04/02 03:59:58;;;;;;;19.10;9.88;;;5.40;70.70;;;;;;5071317;28;20025;-77
2022/04/02 04:02:24;;;;;;;;;;;5.40;71.00;;;;;;5071628;28;20044;-77
2022/04/02 04:04:50;;;;;;;17.60;9.10;;;5.40;70.80;;;;;;5071215;28;19912;-76
2022/04/02 04:07:16;;;;;;;16.60;9.30;;;5.40;70.70;;;;;;5070913;28;20042;-75
2022/04/02 04:09:42;;;;;;;18.13;9.75;;;5.40;70.80;;;;;;5053722;28;20040;-75
2022/04/02 04:12:10;;;;;;;16.45;9.27;;;5.40;71.00;;;;;;5054016;28;20045;-77
2022/04/02 04:14:36;;;;;;;17.52;9.85;;;5.30;70.80;;;;;;5054407;28;20032;-76
2022/04/02 04:17:03;;;;;;;20.73;10.05;;;5.30;70.30;;;;;;5072863;28;20389;-77
2022/04/02 04:19:31;;;;;;;16.70;9.00;;;5.30;70.50;;;;;;5075137;28;20027;-76
2022/04/02 04:21:58;;;;;;;17.83;9.50;;;5.40;70.70;;;;;;5058046;28;20139;-77
2022/04/02 04:24:24;;;;;;;16.08;8.57;;;5.40;70.70;;;;;;5057401;28;20024;-75
2022/04/02 04:26:50;;;;;;;18.02;9.65;;;5.40;70.60;;;;;;5057486;28;20413;-76
2022/04/02 04:29:16;;;;;;;16.30;8.38;;;5.40;70.50;;;;;;5076324;28;20064;-77
2022/04/02 04:31:42;;;;;;;14.82;8.70;;;5.40;70.50;;;;;;5074447;28;20071;-76
2022/04/02 04:34:08;;;;;;;;;;;5.40;70.40;;;;;;5075416;28;20032;-76
2022/04/02 04:36:34;;;;;;;17.13;9.00;;;5.40;70.30;;;;;;5057691;28;20446;-76
2022/04/02 04:39:01;;;;;;;15.75;8.65;;;5.40;70.20;;;;;;5058006;28;20024;-77
2022/04/02 04:41:27;;;;;;;;;;;5.40;69.40;;;;;;5057204;28;20071;-76
2022/04/02 04:43:53;;;;;;;17.40;8.75;;;5.40;69.60;;;;;;5075845;28;20409;-75
2022/04/02 04:46:20;;;;;;;;;;;5.30;70.20;;;;;;5074659;28;20106;-76
2022/04/02 04:48:47;;;;;;;16.30;8.97;;;5.30;70.00;;;;;;5075749;28;19916;-77
2022/04/02 04:51:14;;;;;;;15.30;8.65;;;5.40;70.10;;;;;;5057132;28;20037;-75
2022/04/02 04:53:41;;;;;;;16.00;8.95;;;5.40;69.40;;;;;;5057730;28;20093;-76
2022/04/02 04:56:08;;;;;;;15.18;8.88;;;5.40;69.80;;;;;;5056297;28;20098;-76
2022/04/02 04:58:35;;;;;;;17.17;9.10;;;5.30;69.80;;;;;;5074321;28;20032;-77
2022/04/02 05:01:01;;;;;;;18.15;9.60;;;5.30;69.30;;;;;;5057235;28;20036;-77
2022/04/02 05:03:28;;;;;;;18.55;9.73;;;5.30;69.20;;;;;;5075508;28;20060;-77
2022/04/02 05:05:56;;;;;;;16.92;8.93;;;5.50;69.90;;;;;;5073735;28;20040;-76
2022/04/02 05:08:23;;;;;;;20.80;11.48;;;5.50;69.70;;;;;;5074194;28;20037;-76
2022/04/02 05:10:50;;;;;;;21.67;10.77;;;5.40;69.60;;;;;;5072798;28;20040;-76
2022/04/02 05:13:17;;;;;;;26.23;14.32;;;5.40;69.60;;;;;;5074149;28;20107;-75
2022/04/02 05:15:45;;;;;;;27.35;13.15;;;5.40;70.70;;;;;;5073509;28;20374;-77
2022/04/02 05:18:12;;;;;;;23.85;13.40;;;5.40;69.50;;;;;;5075222;28;20394;-76
2022/04/02 05:20:39;;;;;;;17.50;10.27;;;5.30;69.10;;;;;;5056858;28;20037;-77
2022/04/02 05:23:07;;;;;;;20.15;10.30;;;5.40;69.60;;;;;;5073907;28;20032;-77
2022/04/02 05:25:34;;;;;;;15.65;8.77;;;5.40;69.50;;;;;;5072537;28;20028;-76
2022/04/02 05:28:21;;;;;;;19.55;10.55;;;5.30;69.60;;;;;;5074735;28;20139;-77
2022/04/02 05:30:47;;;;;;;20.10;10.80;;;5.30;69.80;;;;;;5056392;28;20139;-75
2022/04/02 05:33:13;;;;;;;20.60;10.70;;;5.40;69.70;;;;;;5073718;28;20028;-77
2022/04/02 05:35:39;;;;;;;19.35;10.77;;;5.40;69.60;;;;;;5074446;28;20033;-75
2022/04/02 05:38:06;;;;;;;17.30;9.63;;;5.40;69.60;;;;;;5074866;28;20153;-76
2022/04/02 05:40:32;;;;;;;21.35;10.40;;;5.50;68.80;;;;;;5072179;28;20052;-76
2022/04/02 05:42:58;;;;;;;22.27;11.50;;;5.50;69.40;;;;;;5056773;28;20504;-76
2022/04/02 05:45:24;;;;;;;;;;;5.50;69.50;;;;;;5074843;28;20046;-77
2022/04/02 05:47:52;;;;;;;21.92;11.13;;;5.50;69.30;;;;;;5073582;28;19928;-75
2022/04/02 05:50:20;;;;;;;23.70;12.15;;;5.50;68.40;;;;;;5056150;28;20082;-75
2022/04/02 05:52:49;;;;;;;17.77;10.23;;;5.50;68.90;;;;;;5073412;28;20432;-76
2022/04/02 05:55:17;;;;;;;18.88;11.52;;;5.60;68.80;;;;;;5055475;28;20500;-75
2022/04/02 05:57:44;;;;;;;23.52;11.98;;;5.50;68.80;;;;;;5073466;28;20040;-77
2022/04/02 06:00:15;;;;;;;21.27;11.43;;;5.60;68.80;;;;;;5072883;28;20032;-75
2022/04/02 06:02:41;;;;;;;18.88;10.55;;;5.60;68.80;;;;;;5056793;28;20075;-77
2022/04/02 06:05:11;;;;;;;20.23;10.15;;;5.50;68.80;;;;;;5072904;28;20036;-76
2022/04/02 06:07:37;;;;;;;20.15;10.60;;;5.50;68.90;;;;;;5056455;28;20037;-77
2022/04/02 06:10:04;;;;;;;;;;;5.50;68.50;;;;;;5072826;28;20086;-76
2022/04/02 06:12:32;;;;;;;21.08;10.57;;;5.50;69.00;;;;;;5074227;28;19924;-77
2022/04/02 06:14:59;;;;;;;18.13;9.45;;;5.50;68.90;;;;;;5073052;28;20021;-77
2022/04/02 06:17:26;;;;;;;20.75;10.32;;;5.50;69.00;;;;;;5072631;28;20040;-75
2022/04/02 06:19:53;;;;;;;20.77;10.70;;;5.50;68.80;;;;;;5072856;28;20036;-76
2022/04/02 06:22:19;;;;;;;21.35;10.27;;;5.50;68.80;;;;;;5072370;28;20043;-75
2022/04/02 06:24:46;;;;;;;20.75;11.25;;;5.50;68.80;;;;;;5073127;28;20079;-76
2022/04/02 06:27:12;;;;;;;;;;;5.50;68.90;;;;;;5055032;28;20060;-77
2022/04/02 06:29:38;;;;;;;33.95;16.85;;;5.50;68.80;;;;;;5072711;28;19931;-75
2022/04/02 06:32:05;;;;;;;29.83;14.65;;;5.50;68.70;;;;;;5072078;28;20033;-76
2022/04/02 06:34:31;;;;;;;23.73;13.63;;;5.50;68.70;;;;;;5055951;28;20378;-77
2022/04/02 06:36:57;;;;;;;31.35;18.48;;;5.60;68.70;;;;;;5073562;28;20473;-75
2022/04/02 06:39:23;;;;;;;28.35;16.33;;;5.60;68.60;;;;;;5072331;28;20032;-76
2022/04/02 06:41:49;;;;;;;20.70;12.50;;;5.60;68.50;;;;;;5072401;28;20100;-77
2022/04/02 06:44:16;;;;;;;19.40;10.23;;;5.70;68.60;;;;;;5073620;28;20033;-75
2022/04/02 06:46:42;;;;;;;20.00;10.88;;;5.70;68.50;;;;;;5055242;28;20086;-76
2022/04/02 06:49:09;;;;;;;20.33;10.48;;;5.70;68.40;;;;;;5072338;28;20094;-77
2022/04/02 06:51:37;;;;;;;23.38;11.43;;;5.70;68.40;;;;;;5072960;28;20048;-75
2022/04/02 06:54:05;;;;;;;20.60;11.95;;;5.70;68.30;;;;;;5072097;28;20032;-75
2022/04/02 06:56:31;;;;;;;21.17;10.80;;;5.70;68.20;;;;;;5070859;28;20148;-77
2022/04/02 06:58:58;;;;;;;17.50;9.90;;;5.80;67.90;;;;;;5071990;28;20025;-75
2022/04/02 07:01:24;;;;;;;;;;;5.80;67.80;;;;;;5055352;28;20127;-77
2022/04/02 07:03:50;;;;;;;19.25;9.93;;;5.80;67.80;;;;;;5071943;28;19912;-77
2022/04/02 07:06:16;;;;;;;15.25;9.38;;;5.90;67.70;;;;;;5054780;28;20040;-75
2022/04/02 07:08:42;;;;;;;15.23;8.70;;;5.90;67.60;;;;;;5071961;28;20115;-77
2022/04/02 07:11:08;;;;;;;14.68;8.77;;;5.90;67.60;;;;;;5070431;28;20037;-76
2022/04/02 07:13:35;;;;;;;17.65;9.40;;;6.00;68.10;;;;;;5055405;28;20032;-77
2022/04/02 07:16:02;;;;;;;17.98;10.20;;;6.00;67.30;;;;;;5054598;28;20046;-76
2022/04/02 07:18:30;;;;;;;17.75;9.85;;;6.00;67.20;;;;;;5055237;28;20063;-76
2022/04/02 07:21:00;;;;;;;19.40;10.00;;;6.00;66.80;;;;;;5050425;28;20045;-77
2022/04/02 07:23:29;;;;;;;17.95;9.57;;;6.00;66.80;;;;;;5051814;28;20438;-76
2022/04/02 07:25:56;;;;;;;19.88;10.13;;;5.90;67.00;;;;;;5053053;28;20048;-77
2022/04/02 07:28:25;;;;;;;24.83;13.30;;;6.00;67.00;;;;;;5054932;28;20127;-77
2022/04/02 07:30:51;;;;;;;19.75;11.05;;;6.00;66.70;;;;;;5071092;28;20043;-77
2022/04/02 07:33:17;;;;;;;;;;;6.00;65.90;;;;;;5073335;28;20190;-75
2022/04/02 07:36:05;;;;;;;25.67;14.60;;;6.00;66.50;;;;;;5071133;28;19913;-76
2022/04/02 07:39:27;;;;;;;19.90;12.20;;;6.00;65.90;;;;;;5071359;28;20033;-77
2022/04/02 07:42:49;;;;;;;18.42;9.32;;;6.00;65.90;;;;;;5070854;28;20032;-76
2022/04/02 07:45:23;;;;;;;17.27;8.30;;;5.80;66.00;;;;;;5070536;28;20036;-78
2022/04/02 07:47:56;;;;;;;17.15;8.70;;;5.70;66.20;;;;;;5066288;28;20103;-78
2022/04/02 07:50:25;;;;;;;15.40;7.97;;;5.60;66.20;;;;;;5050924;28;20486;-77
2022/04/02 07:53:30;;;;;;;13.98;7.63;;;5.60;66.10;;;;;;5051099;28;20120;-78
2022/04/02 07:55:58;;;;;;;14.85;8.25;;;5.50;66.50;;;;;;5053498;28;20298;-78
2022/04/02 07:58:31;;;;;;;15.82;7.80;;;5.40;66.40;;;;;;5070676;28;20397;-78
2022/04/02 08:01:02;;;;;;;16.15;8.43;;;5.40;66.20;;;;;;5050924;28;20037;-77
2022/04/02 08:03:31;;;;;;;14.38;8.07;;;5.30;66.30;;;;;;5034748;28;20087;-77
2022/04/02 08:05:58;;;;;;;16.30;8.93;;;5.30;66.30;;;;;;5050928;28;20525;-77
2022/04/02 08:08:25;;;;;;;18.10;8.57;;;5.20;66.20;;;;;;5051244;28;20037;-78
2022/04/02 08:11:11;;;;;;;15.75;7.90;;;5.20;65.70;;;;;;5053344;28;20043;-78
2022/04/02 08:13:57;;;;;;;18.27;8.30;;;5.20;66.30;;;;;;5055533;28;20031;-77
2022/04/02 08:16:24;;;;;;;19.13;9.60;;;5.20;66.20;;;;;;5070711;28;20090;-78
2022/04/02 08:18:51;;;;;;;;;;;5.20;66.30;;;;;;5063983;28;20116;-78
2022/04/02 08:21:17;;;;;;;20.25;11.25;;;5.10;66.10;;;;;;5037684;28;19943;-78
2022/04/02 08:23:44;;;;;;;19.65;10.63;;;5.00;66.10;;;;;;5054148;28;20037;-78
2022/04/02 08:27:06;;;;;;;17.67;9.60;;;5.00;66.20;;;;;;5059249;28;20028;-78
2022/04/02 08:30:10;;;;;;;18.83;10.25;;;4.90;66.30;;;;;;5070855;28;20444;-78
2022/04/02 08:33:20;;;;;;;19.17;8.65;;;4.90;66.40;;;;;;5072381;28;20037;-77
2022/04/02 08:36:02;;;;;;;16.92;8.60;;;4.90;66.30;;;;;;5071639;28;20393;-77
2022/04/02 08:38:57;;;;;;;16.40;8.77;;;4.80;66.00;;;;;;5071644;28;20040;-77
2022/04/02 08:41:56;;;;;;;17.50;9.35;;;4.80;66.00;;;;;;5057656;28;20047;-77
2022/04/02 08:45:18;;;;;;;17.02;8.85;;;4.80;66.00;;;;;;5070900;28;20098;-76
2022/04/02 08:48:41;;;;;;;15.55;7.45;;;4.80;66.00;;;;;;5058149;28;20037;-77
2022/04/02 08:51:45;;;;;;;17.50;7.80;;;4.80;65.80;;;;;;5051197;28;20083;-76
2022/04/02 08:54:30;;;;;;;11.55;6.13;;;4.60;66.00;;;;;;5050835;28;20053;-76
2022/04/02 08:57:24;;;;;;;13.80;6.97;;;4.50;66.20;;;;;;5050625;28;20115;-76
2022/04/02 09:00:04;;;;;;;12.68;7.28;;;4.60;66.30;;;;;;5050535;28;20056;-76
2022/04/02 09:06:39;;;;;;;15.25;8.15;;;4.60;66.00;;;;;;5054895;28;20035;-77
2022/04/02 09:09:07;;;;;;;15.43;8.32;;;4.60;65.70;;;;;;5057963;28;20500;-77
2022/04/02 09:12:19;;;;;;;14.65;8.43;;;4.60;65.70;;;;;;5074397;28;20044;-76
2022/04/02 09:15:41;;;;;;;14.20;7.88;;;4.70;65.90;;;;;;5065244;28;20039;-76
2022/04/02 09:18:44;;;;;;;13.75;8.00;;;4.80;65.40;;;;;;5078369;28;20051;-75
2022/04/02 09:21:38;;;;;;;14.77;8.73;;;5.00;64.90;;;;;;5074776;28;20033;-76
2022/04/02 09:24:42;;;;;;;16.85;8.52;;;5.00;64.40;;;;;;5053750;28;20037;-75
2022/04/02 09:28:04;;;;;;;18.58;9.55;;;5.30;64.10;;;;;;5057936;28;20095;-75
2022/04/02 09:31:08;;;;;;;20.42;11.75;;;5.50;63.70;;;;;;5074169;28;20075;-75
2022/04/02 09:34:12;;;;;;;24.85;14.88;;;5.60;63.10;;;;;;5074894;28;20044;-74
2022/04/02 09:37:27;;;;;;;21.00;12.00;;;5.90;62.70;;;;;;5074677;28;20485;-77
2022/04/02 09:40:05;;;;;;;21.05;11.93;;;6.00;62.30;;;;;;5074515;28;20028;-77
2022/04/02 09:42:43;;;;;;;20.60;10.55;;;6.20;61.90;;;;;;5072838;28;20037;-77
2022/04/02 09:45:13;;;;;;;19.75;10.95;;;6.20;61.70;;;;;;5056496;28;20047;-78
2022/04/02 09:48:04;;;;;;;18.48;11.35;;;6.30;61.70;;;;;;5075124;28;20037;-78
2022/04/02 09:50:31;;;;;;;21.45;10.93;;;6.40;61.50;;;;;;5074114;28;20035;-76
2022/04/02 09:53:24;;;;;;;19.05;10.98;;;6.40;61.40;;;;;;5073483;28;20119;-76
2022/04/02 09:56:31;;;;;;;18.33;9.60;;;6.40;61.40;;;;;;5072618;28;20104;-77
2022/04/02 09:59:54;;;;;;;18.10;9.43;;;6.40;61.30;;;;;;5072472;28;20036;-78
2022/04/02 10:03:04;;;;;;;18.73;10.10;;;6.50;61.40;;;;;;5073865;28;20066;-75
2022/04/02 10:06:10;;;;;;;19.85;11.10;;;6.60;61.30;;;;;;5074032;28;20099;-74
2022/04/02 10:09:13;;;;;;;22.65;13.02;;;6.70;60.80;;;;;;5089971;28;20052;-76
2022/04/02 10:11:54;;;;;;;21.27;12.90;;;6.80;60.80;;;;;;5073638;28;20063;-76
2022/04/02 10:14:23;;;;;;;21.63;12.73;;;7.00;60.60;;;;;;5072086;28;20029;-76
2022/04/02 10:16:55;;;;;;;22.48;12.30;;;7.10;60.20;;;;;;5055751;28;20033;-75
2022/04/02 10:19:40;;;;;;;23.88;11.55;;;7.20;59.80;;;;;;5072973;28;20389;-76
2022/04/02 10:22:10;;;;;;;18.05;10.18;;;7.30;59.70;;;;;;5073645;28;20040;-75
2022/04/02 10:24:58;;;;;;;20.48;11.27;;;7.40;59.40;;;;;;5072712;28;20400;-76
2022/04/02 10:27:44;;;;;;;18.00;10.35;;;7.40;59.30;;;;;;5054515;28;20102;-77
2022/04/02 10:30:32;;;;;;;15.88;9.07;;;7.50;59.20;;;;;;5073302;28;20103;-76
2022/04/02 10:36:05;;;;;;;11.52;6.10;;;7.40;59.50;;;;;;5073632;28;19926;-76
2022/04/02 10:38:51;;;;;;;9.90;5.82;;;7.50;59.00;;;;;;5073619;28;20124;-76
2022/04/02 10:41:18;;;;;;;11.43;5.75;;;7.60;58.90;;;;;;5055090;28;20481;-76
2022/04/02 10:44:10;;;;;;;11.70;5.85;;;7.70;58.70;;;;;;5071486;28;20045;-76
2022/04/02 10:46:41;;;;;;;9.43;5.35;;;7.80;58.30;;;;;;5071884;28;20036;-76
2022/04/02 10:49:20;;;;;;;12.05;6.38;;;7.70;58.40;;;;;;5072360;28;20024;-76
2022/04/02 10:51:53;;;;;;;11.15;6.38;;;7.90;58.40;;;;;;5054795;28;20044;-76
2022/04/02 10:54:28;;;;;;;12.68;7.63;;;7.90;58.10;;;;;;5072130;28;20478;-76
2022/04/02 10:59:44;;;;;;;11.85;7.30;;;8.00;58.00;;;;;;5071417;28;20040;-77
2022/04/02 11:02:55;;;;;;;11.15;6.43;;;8.10;57.60;;;;;;5054940;28;20482;-77
2022/04/02 11:05:22;;;;;;;14.13;8.73;;;8.10;57.70;;;;;;5088329;28;20029;-76
2022/04/02 11:07:49;;;;;;;13.18;7.88;;;8.30;57.50;;;;;;5071954;28;20036;-77
2022/04/02 11:10:19;;;;;;;9.95;4.93;;;8.40;56.50;;;;;;5071487;28;20370;-76
2022/04/02 11:12:46;;;;;;;11.23;5.50;;;8.40;56.30;;;;;;5071055;28;20123;-77
2022/04/02 11:15:36;;;;;;;9.32;5.05;;;8.40;56.70;;;;;;5071361;28;20032;-77
2022/04/02 11:18:03;;;;;;;6.72;3.83;;;8.50;56.10;;;;;;5071705;28;20052;-75
2022/04/02 11:20:48;;;;;;;8.48;4.20;;;8.30;56.40;;;;;;5071288;28;20116;-77
2022/04/02 11:23:56;;;;;;;9.35;5.30;;;8.10;57.30;;;;;;5071640;28;20094;-75
2022/04/02 11:26:27;;;;;;;7.32;3.53;;;8.10;57.50;;;;;;5070732;28;20089;-77
2022/04/02 11:28:56;;;;;;;6.68;3.88;;;8.10;57.10;;;;;;5070439;28;20052;-77
2022/04/02 11:31:46;;;;;;;8.40;4.63;;;7.80;57.40;;;;;;5071068;28;20095;-75
2022/04/02 11:34:20;;;;;;;7.22;3.92;;;7.60;57.80;;;;;;5071625;28;20032;-77
2022/04/02 11:36:48;;;;;;;7.30;3.90;;;7.50;58.30;;;;;;5054476;28;20041;-75
2022/04/02 11:39:32;;;;;;;6.65;3.30;;;7.50;57.90;;;;;;5071067;28;20199;-76
2022/04/02 11:42:03;;;;;;;7.05;3.97;;;7.40;58.00;;;;;;5071141;28;20493;-76
2022/04/02 11:45:08;;;;;;;10.40;4.72;;;7.20;58.60;;;;;;5054168;28;20029;-75
2022/04/02 11:47:37;;;;;;;13.63;6.70;;;7.10;59.10;;;;;;5054933;28;20037;-77
2022/04/02 11:50:08;;;;;;;13.77;6.97;;;6.90;59.20;;;;;;5071292;28;20035;-76
2022/04/02 11:53:13;;;;;;;11.40;6.40;;;6.80;59.60;;;;;;5071594;28;20043;-76
2022/04/02 11:55:41;;;;;;;14.10;7.95;;;6.60;59.80;;;;;;5070890;28;20032;-77
2022/04/02 11:58:26;;;;;;;19.40;8.98;;;6.50;60.10;;;;;;5071741;28;20287;-76
2022/04/02 12:00:58;;;;;;;11.45;6.65;;;6.60;60.20;;;;;;5054142;28;20032;-75
2022/04/02 12:06:12;;;;;;;11.02;6.25;;;6.60;60.00;;;;;;5072025;28;20037;-77
2022/04/02 12:08:43;;;;;;;;;;;6.50;60.30;;;;;;5071945;28;20396;-77
2022/04/02 12:11:12;;;;;;;8.90;4.63;;;6.50;60.00;;;;;;5070774;28;19928;-77
2022/04/02 12:13:39;;;;;;;12.82;6.28;;;6.40;60.20;;;;;;5070426;28;20033;-77
2022/04/02 12:16:27;;;;;;;11.73;6.53;;;6.40;60.50;;;;;;5070656;28;20493;-77
2022/04/02 12:18:57;;;;;;;;;;;6.30;61.00;;;;;;5071667;28;20040;-77
2022/04/02 12:24:49;;;;;;;13.77;7.20;;;6.10;61.40;;;;;;5071316;28;20032;-75
2022/04/02 12:27:28;;;;;;;13.55;7.45;;;6.10;61.40;;;;;;5070557;28;20460;-76
2022/04/02 12:29:57;;;;;;;17.85;8.77;;;6.00;61.50;;;;;;5070214;28;20489;-77
2022/04/02 12:32:44;;;;;;;16.35;9.10;;;5.90;61.80;;;;;;5053921;28;20044;-76
2022/04/02 12:35:15;;;;;;;22.30;12.43;;;6.00;61.80;;;;;;5053972;28;20485;-77
2022/04/02 12:37:45;;;;;;;17.15;11.80;;;6.20;61.40;;;;;;5054575;28;20062;-77
2022/04/02 12:40:24;;;;;;;13.30;8.30;;;6.10;61.30;;;;;;5074176;28;20115;-76
2022/04/02 12:43:11;;;;;;;16.77;8.60;;;6.10;61.80;;;;;;5074952;28;20063;-76
2022/04/02 12:45:38;;;;;;;16.83;9.20;;;6.10;61.80;;;;;;5053242;28;20033;-77
2022/04/02 12:48:17;;;;;;;18.45;9.88;;;6.10;61.80;;;;;;5054752;28;20040;-77
2022/04/02 12:51:02;;;;;;;14.93;8.27;;;6.00;62.00;;;;;;5054055;28;20470;-76
2022/04/02 12:53:48;;;;;;;16.33;9.52;;;6.00;62.30;;;;;;5055727;28;20107;-76
2022/04/02 12:56:35;;;;;;;17.00;9.13;;;6.10;62.10;;;;;;5054065;28;20029;-77
2022/04/02 12:59:01;;;;;;;14.75;8.13;;;6.20;61.90;;;;;;5058691;28;20397;-77
2022/04/02 13:01:47;;;;;;;13.98;7.90;;;6.20;61.80;;;;;;5073854;28;20091;-76
2022/04/02 13:04:14;;;;;;;15.43;8.48;;;6.30;61.70;;;;;;5074327;28;20326;-77
2022/04/02 13:06:58;;;;;;;14.60;7.95;;;6.40;61.60;;;;;;5073891;28;20044;-77
2022/04/02 13:09:33;;;;;;;15.23;8.23;;;6.40;62.50;;;;;;5075396;28;20060;-76
2022/04/02 13:12:02;;;;;;;16.25;8.93;;;6.50;61.30;;;;;;5073655;28;20041;-76
2022/04/02 13:14:56;;;;;;;14.60;8.07;;;6.50;61.30;;;;;;5074546;28;20028;-76
2022/04/02 13:17:23;;;;;;;15.70;8.07;;;6.70;61.10;;;;;;5056799;28;20539;-76
2022/04/02 13:22:55;;;;;;;17.92;10.00;;;6.80;60.90;;;;;;5074453;28;20061;-76
2022/04/02 13:25:23;;;;;;;13.50;7.85;;;6.90;60.70;;;;;;5073437;28;20031;-77
2022/04/02 13:28:28;;;;;;;14.05;7.55;;;6.90;60.60;;;;;;5073828;28;20074;-77
2022/04/02 13:31:00;;;;;;;15.38;8.38;;;7.00;60.80;;;;;;5072449;28;20056;-77
2022/04/02 13:34:04;;;;;;;13.00;7.82;;;6.90;61.00;;;;;;5057221;28;20064;-77
2022/04/02 13:37:26;;;;;;;13.75;7.88;;;6.90;61.00;;;;;;5074698;28;20511;-76
2022/04/02 13:39:54;;;;;;;16.00;9.60;;;6.90;61.10;;;;;;5073510;28;20048;-76
2022/04/02 13:42:27;;;;;;;14.43;7.60;;;6.80;61.10;;;;;;5074701;28;20405;-77
2022/04/02 13:44:57;;;;;;;15.77;9.10;;;6.70;61.30;;;;;;5056082;28;20094;-77
2022/04/02 13:47:27;;;;;;;13.38;8.15;;;6.60;61.40;;;;;;5073307;28;20090;-77
2022/04/02 13:50:13;;;;;;;20.65;11.32;;;6.60;61.40;;;;;;5072761;28;20468;-75
2022/04/02 13:53:02;;;;;;;15.63;8.18;;;6.60;61.70;;;;;;5056639;28;20045;-77